createdAt,value
2022-09-03T00:00:14.547Z,14.90
2022-09-03T00:02:45.649Z,14.90
2022-09-03T00:05:19.854Z,15.00
2022-09-03T00:07:56.109Z,15.00
2022-09-03T00:10:30.860Z,14.90
2022-09-03T00:13:02.703Z,15.00
2022-09-03T00:15:33.410Z,15.00
2022-09-03T00:18:06.711Z,14.80
2022-09-03T00:20:40.012Z,14.90
2022-09-03T00:23:10.816Z,14.70
2022-09-03T00:25:44.354Z,14.60
2022-09-03T00:28:16.559Z,14.50
2022-09-03T00:30:53.861Z,14.60
2022-09-03T00:33:24.605Z,14.40
2022-09-03T00:35:59.515Z,14.40
2022-09-03T00:38:28.260Z,14.30
2022-09-03T00:41:10.327Z,13.90
2022-09-03T00:43:56.460Z,14.10
2022-09-03T00:46:30.814Z,14.10
2022-09-03T00:49:19.896Z,13.70
2022-09-03T00:51:56.304Z,13.60
2022-09-03T00:54:32.887Z,13.60
2022-09-03T00:57:33.570Z,13.90
2022-09-03T01:00:07.366Z,13.90
2022-09-03T01:02:52.557Z,13.70
2022-09-03T01:05:39.323Z,13.60
2022-09-03T01:08:22.077Z,13.40
2022-09-03T01:10:56.749Z,13.80
2022-09-03T01:13:31.801Z,14.20
2022-09-03T01:16:09.788Z,14.50
2022-09-03T01:18:45.715Z,14.60
2022-09-03T01:21:36.554Z,14.00
2022-09-03T01:24:39.153Z,14.30
2022-09-03T01:27:22.008Z,14.20
2022-09-03T01:30:01.208Z,14.00
2022-09-03T01:32:38.260Z,14.10
2022-09-03T01:35:16.253Z,14.30
2022-09-03T01:37:57.573Z,14.50
2022-09-03T01:40:34.872Z,14.50
2022-09-03T01:43:16.512Z,14.50
2022-09-03T01:45:53.914Z,14.40
2022-09-03T01:48:34.953Z,14.40
2022-09-03T01:51:11.453Z,14.40
2022-09-03T01:54:20.886Z,14.30
2022-09-03T01:57:35.661Z,14.10
2022-09-03T02:00:07.753Z,14.30
2022-09-03T02:02:37.240Z,14.30
2022-09-03T02:05:07.962Z,14.20
2022-09-03T02:07:38.972Z,14.30
2022-09-03T02:10:10.146Z,14.30
2022-09-03T02:12:40.165Z,14.30
2022-09-03T02:15:12.730Z,14.30
2022-09-03T02:17:44.845Z,14.30
2022-09-03T02:20:19.964Z,14.20
2022-09-03T02:22:49.592Z,13.90
2022-09-03T02:25:18.549Z,14.00
2022-09-03T02:27:47.210Z,14.10
2022-09-03T02:30:15.063Z,14.10
2022-09-03T02:32:44.316Z,14.20
2022-09-03T02:35:12.765Z,14.20
2022-09-03T02:37:41.716Z,14.20
2022-09-03T02:40:10.930Z,14.20
2022-09-03T02:42:39.325Z,14.20
2022-09-03T02:45:18.117Z,14.20
2022-09-03T02:47:51.070Z,14.20
2022-09-03T02:50:19.039Z,14.10
2022-09-03T02:52:46.965Z,14.10
2022-09-03T02:55:15.497Z,13.80
2022-09-03T02:57:43.619Z,13.90
2022-09-03T03:00:12.264Z,14.00
2022-09-03T03:02:40.207Z,14.00
2022-09-03T03:05:13.619Z,14.00
2022-09-03T03:07:42.408Z,14.00
2022-09-03T03:10:11.032Z,14.00
2022-09-03T03:12:39.099Z,14.00
2022-09-03T03:15:07.954Z,14.00
2022-09-03T03:17:35.801Z,13.90
2022-09-03T03:20:04.367Z,13.90
2022-09-03T03:22:33.461Z,14.00
2022-09-03T03:25:01.514Z,13.90
2022-09-03T03:27:29.357Z,13.90
2022-09-03T03:29:58.059Z,13.70
2022-09-03T03:32:25.946Z,13.70
2022-09-03T03:34:53.728Z,13.80
2022-09-03T03:37:21.528Z,13.80
2022-09-03T03:39:50.829Z,13.80
2022-09-03T03:42:18.675Z,13.80
2022-09-03T03:44:46.500Z,13.80
2022-09-03T03:47:16.816Z,13.80
2022-09-03T03:49:45.044Z,13.80
2022-09-03T03:52:12.901Z,13.70
2022-09-03T03:54:40.742Z,13.80
2022-09-03T03:57:09.960Z,13.80
2022-09-03T03:59:37.799Z,13.80
2022-09-03T04:02:05.729Z,13.70
2022-09-03T04:04:33.542Z,13.70
2022-09-03T04:07:01.366Z,13.70
2022-09-03T04:09:29.232Z,13.70
2022-09-03T04:11:57.813Z,13.60
2022-09-03T04:14:27.793Z,13.60
2022-09-03T04:16:56.840Z,13.60
2022-09-03T04:19:25.148Z,13.70
2022-09-03T04:21:52.920Z,13.60
2022-09-03T04:24:20.800Z,13.60
2022-09-03T04:26:50.138Z,13.70
2022-09-03T04:29:18.260Z,13.70
2022-09-03T04:32:01.418Z,13.70
2022-09-03T04:34:29.232Z,13.60
2022-09-03T04:36:58.910Z,13.60
2022-09-03T04:39:26.955Z,13.70
2022-09-03T04:41:54.789Z,13.70
2022-09-03T04:44:22.588Z,13.70
2022-09-03T04:46:53.263Z,13.50
2022-09-03T04:49:21.425Z,13.60
2022-09-03T04:51:49.961Z,13.70
2022-09-03T04:54:17.913Z,13.70
2022-09-03T04:56:45.720Z,13.70
2022-09-03T04:59:13.538Z,13.70
2022-09-03T05:01:41.980Z,13.70
2022-09-03T05:04:11.149Z,13.70
2022-09-03T05:06:39.061Z,13.70
2022-09-03T05:09:06.966Z,13.60
2022-09-03T05:11:35.121Z,13.70
2022-09-03T05:14:03.143Z,13.70
2022-09-03T05:16:31.673Z,14.00
2022-09-03T05:19:01.311Z,14.70
2022-09-03T05:21:31.013Z,14.60
2022-09-03T05:24:00.395Z,14.40
2022-09-03T05:26:30.633Z,14.50
2022-09-03T05:29:01.187Z,14.80
2022-09-03T05:31:31.786Z,14.60
2022-09-03T05:34:02.302Z,14.50
2022-09-03T05:36:33.882Z,14.20
2022-09-03T05:39:02.144Z,14.10
2022-09-03T05:41:30.349Z,14.10
2022-09-03T05:43:58.847Z,14.10
2022-09-03T05:46:31.587Z,13.90
2022-09-03T05:49:00.811Z,14.50
2022-09-03T05:51:29.485Z,15.30
2022-09-03T05:53:59.373Z,15.20
2022-09-03T05:56:29.236Z,15.10
2022-09-03T05:59:01.583Z,14.70
2022-09-03T06:01:31.920Z,14.40
2022-09-03T06:04:01.359Z,13.40
2022-09-03T06:06:31.556Z,13.70
2022-09-03T06:09:03.394Z,14.20
2022-09-03T06:11:32.797Z,13.80
2022-09-03T06:14:02.209Z,13.70
2022-09-03T06:16:32.108Z,14.00
2022-09-03T06:19:00.489Z,14.10
2022-09-03T06:21:29.088Z,13.80
2022-09-03T06:23:59.621Z,14.00
2022-09-03T06:26:30.061Z,14.10
2022-09-03T06:28:59.846Z,13.80
2022-09-03T06:31:28.146Z,14.00
2022-09-03T06:33:59.601Z,14.00
2022-09-03T06:36:30.158Z,14.10
2022-09-03T06:38:58.557Z,14.00
2022-09-03T06:41:27.832Z,13.70
2022-09-03T06:44:03.032Z,13.90
2022-09-03T06:46:32.504Z,14.00
2022-09-03T06:49:00.587Z,14.10
2022-09-03T06:51:30.554Z,14.20
2022-09-03T06:54:02.379Z,14.30
2022-09-03T06:56:33.048Z,14.30
2022-09-03T06:59:08.155Z,14.30
2022-09-03T07:01:36.187Z,14.30
2022-09-03T07:04:05.880Z,14.30
2022-09-03T07:06:37.099Z,14.20
2022-09-03T07:09:05.426Z,14.20
2022-09-03T07:11:35.813Z,14.20
2022-09-03T07:14:04.898Z,14.10
2022-09-03T07:16:36.726Z,14.10
2022-09-03T07:19:05.937Z,14.20
2022-09-03T07:21:36.682Z,14.20
2022-09-03T07:24:06.084Z,14.20
2022-09-03T07:26:36.597Z,14.20
2022-09-03T07:29:04.525Z,14.30
2022-09-03T07:31:35.610Z,14.30
2022-09-03T07:34:10.108Z,14.30
2022-09-03T07:36:41.532Z,14.30
2022-09-03T07:39:09.788Z,14.30
2022-09-03T07:41:37.728Z,14.30
2022-09-03T07:44:06.449Z,14.40
2022-09-03T07:46:38.082Z,14.40
2022-09-03T07:49:07.094Z,14.40
2022-09-03T07:51:37.385Z,14.30
2022-09-03T07:54:07.596Z,14.30
2022-09-03T07:56:36.797Z,14.40
2022-09-03T07:59:05.448Z,14.20
2022-09-03T08:01:36.205Z,14.30
2022-09-03T08:04:06.432Z,14.40
2022-09-03T08:06:38.332Z,14.50
2022-09-03T08:09:08.788Z,14.60
2022-09-03T08:11:39.598Z,14.70
2022-09-03T08:14:08.935Z,14.70
2022-09-03T08:16:39.852Z,14.80
2022-09-03T08:19:07.891Z,14.80
2022-09-03T08:21:36.005Z,14.90
2022-09-03T08:24:04.217Z,14.90
2022-09-03T08:26:33.365Z,15.10
2022-09-03T08:29:01.511Z,15.20
2022-09-03T08:31:30.901Z,15.20
2022-09-03T08:34:06.351Z,15.20
2022-09-03T08:36:36.164Z,15.30
2022-09-03T08:39:09.388Z,15.40
2022-09-03T08:41:50.240Z,15.40
2022-09-03T08:44:25.061Z,15.50
2022-09-03T08:46:56.412Z,15.50
2022-09-03T08:49:31.447Z,15.60
2022-09-03T08:52:04.028Z,15.70
2022-09-03T08:54:33.262Z,15.80
2022-09-03T08:57:04.101Z,16.10
2022-09-03T08:59:33.388Z,16.00
2022-09-03T09:02:13.755Z,16.10
2022-09-03T09:04:59.938Z,16.40
2022-09-03T09:07:33.509Z,16.50
2022-09-03T09:10:09.484Z,16.50
2022-09-03T09:12:48.664Z,16.30
2022-09-03T09:15:28.570Z,16.50
2022-09-03T09:18:09.006Z,16.90
2022-09-03T09:20:44.714Z,16.80
2022-09-03T09:23:16.285Z,16.90
2022-09-03T09:25:50.054Z,16.90
2022-09-03T09:28:21.339Z,17.20
2022-09-03T09:30:51.471Z,17.30
2022-09-03T09:33:21.063Z,17.40
2022-09-03T09:35:50.813Z,17.30
2022-09-03T09:38:30.705Z,17.30
2022-09-03T09:41:08.945Z,17.30
2022-09-03T09:43:37.774Z,17.50
2022-09-03T09:46:10.361Z,17.10
2022-09-03T09:48:42.564Z,17.80
2022-09-03T09:51:14.716Z,18.20
2022-09-03T09:53:44.863Z,18.10
2022-09-03T09:56:22.463Z,18.00
2022-09-03T09:58:52.295Z,18.20
2022-09-03T10:01:25.734Z,18.50
2022-09-03T10:03:56.189Z,18.80
2022-09-03T10:06:45.648Z,18.80
2022-09-03T10:09:15.846Z,19.00
2022-09-03T10:11:46.889Z,18.90
2022-09-03T10:14:22.141Z,18.80
2022-09-03T10:16:58.248Z,18.70
2022-09-03T10:19:36.204Z,18.90
2022-09-03T10:22:11.092Z,18.80
2022-09-03T10:24:50.916Z,18.50
2022-09-03T10:27:20.801Z,19.00
2022-09-03T10:29:49.641Z,19.30
2022-09-03T10:32:37.972Z,19.30
2022-09-03T10:35:15.682Z,19.60
2022-09-03T10:37:51.936Z,19.60
2022-09-03T10:40:31.044Z,19.40
2022-09-03T10:43:15.428Z,19.30
2022-09-03T10:45:54.774Z,19.40
2022-09-03T10:48:40.105Z,18.80
2022-09-03T10:51:17.562Z,18.70
2022-09-03T10:54:05.753Z,19.40
2022-09-03T10:56:43.051Z,20.20
2022-09-03T10:59:29.279Z,20.00
2022-09-03T11:02:06.797Z,20.00
2022-09-03T11:04:44.221Z,20.10
2022-09-03T11:07:15.925Z,20.00
2022-09-03T11:09:50.474Z,20.00
2022-09-03T11:12:23.651Z,20.40
2022-09-03T11:14:57.396Z,20.30
2022-09-03T11:17:28.296Z,20.10
2022-09-03T11:20:07.202Z,20.20
2022-09-03T11:22:35.702Z,20.00
2022-09-03T11:25:07.136Z,20.30
2022-09-03T11:27:56.616Z,20.40
2022-09-03T11:30:28.185Z,20.20
2022-09-03T11:32:59.855Z,20.40
2022-09-03T11:35:31.209Z,20.60
2022-09-03T11:38:01.286Z,20.60
2022-09-03T11:40:36.697Z,20.50
2022-09-03T11:43:12.872Z,20.30
2022-09-03T11:45:41.261Z,20.60
2022-09-03T11:48:34.281Z,20.30
2022-09-03T11:51:02.213Z,20.60
2022-09-03T11:53:35.762Z,21.00
2022-09-03T11:56:19.612Z,21.30
2022-09-03T11:58:48.112Z,21.20
2022-09-03T12:01:18.089Z,21.30
2022-09-03T12:03:48.412Z,21.60
2022-09-03T12:06:50.257Z,21.20
2022-09-03T12:09:35.110Z,21.40
2022-09-03T12:12:15.129Z,21.20
2022-09-03T12:14:57.081Z,21.50
2022-09-03T12:17:31.909Z,21.20
2022-09-03T12:20:00.316Z,21.30
2022-09-03T12:22:31.188Z,21.30
2022-09-03T12:25:12.000Z,21.50
2022-09-03T12:27:43.901Z,21.70
2022-09-03T12:30:17.823Z,21.70
2022-09-03T12:32:47.462Z,21.40
2022-09-03T12:38:08.483Z,21.90
2022-09-03T12:43:41.184Z,22.00
2022-09-03T12:46:17.228Z,22.00
2022-09-03T12:51:51.250Z,22.00
2022-09-03T12:54:22.708Z,21.90
2022-09-03T12:56:55.878Z,22.10
2022-09-03T12:59:28.141Z,22.10
2022-09-03T13:01:59.362Z,21.90
2022-09-03T13:04:30.405Z,22.20
2022-09-03T13:07:04.166Z,22.10
2022-09-03T13:09:36.147Z,22.40
2022-09-03T13:12:05.617Z,22.10
2022-09-03T13:14:45.142Z,21.90
2022-09-03T13:17:25.972Z,22.10
2022-09-03T13:20:08.660Z,22.00
2022-09-03T13:22:43.700Z,22.10
2022-09-03T13:25:19.583Z,22.00
2022-09-03T13:27:59.187Z,22.10
2022-09-03T13:30:39.191Z,22.20
2022-09-03T13:33:11.859Z,22.30
2022-09-03T13:35:46.530Z,22.40
2022-09-03T13:38:26.888Z,22.50
2022-09-03T13:40:59.608Z,22.20
2022-09-03T13:43:34.978Z,22.00
2022-09-03T13:46:09.031Z,21.80
2022-09-03T13:48:58.477Z,21.60
2022-09-03T13:51:30.598Z,21.70
2022-09-03T13:54:17.016Z,21.70
2022-09-03T13:57:00.778Z,21.60
2022-09-03T13:59:37.000Z,21.50
2022-09-03T14:02:28.618Z,21.40
2022-09-03T14:05:06.217Z,21.30
2022-09-03T14:07:47.910Z,21.20
2022-09-03T14:10:25.372Z,21.20
2022-09-03T14:13:07.054Z,21.10
2022-09-03T14:15:45.440Z,21.00
2022-09-03T14:18:24.714Z,20.80
2022-09-03T14:20:59.021Z,20.70
2022-09-03T14:23:34.184Z,20.70
2022-09-03T14:26:06.625Z,20.60
2022-09-03T14:28:37.500Z,20.60
2022-09-03T14:31:15.789Z,20.50
2022-09-03T14:33:56.209Z,20.40
2022-09-03T14:36:31.149Z,20.10
2022-09-03T14:39:13.225Z,19.90
2022-09-03T14:41:57.329Z,19.80
2022-09-03T14:44:39.100Z,19.70
2022-09-03T14:47:21.310Z,19.20
2022-09-03T14:50:12.193Z,19.20
2022-09-03T14:53:00.869Z,19.50
2022-09-03T14:56:16.546Z,19.50
2022-09-03T14:59:01.477Z,19.50
2022-09-03T15:01:38.549Z,19.40
2022-09-03T15:04:46.481Z,19.30
2022-09-03T15:07:28.572Z,19.50
2022-09-03T15:10:13.644Z,19.50
2022-09-03T15:12:46.060Z,19.30
2022-09-03T15:15:19.425Z,19.30
2022-09-03T15:18:01.060Z,18.80
2022-09-03T15:20:41.924Z,18.00
2022-09-03T15:23:39.912Z,17.90
2022-09-03T15:26:25.682Z,17.70
2022-09-03T15:29:11.373Z,18.20
2022-09-03T15:31:49.282Z,18.80
2022-09-03T15:34:36.581Z,19.00
2022-09-03T15:37:12.969Z,19.10
2022-09-03T15:39:45.158Z,18.90
2022-09-03T15:42:22.909Z,18.90
2022-09-03T15:44:54.050Z,18.80
2022-09-03T15:47:51.837Z,18.90
2022-09-03T15:50:30.649Z,18.90
2022-09-03T15:53:04.384Z,18.90
2022-09-03T15:55:37.215Z,18.90
2022-09-03T15:58:14.299Z,18.90
2022-09-03T16:00:59.900Z,18.90
2022-09-03T16:03:44.184Z,18.90
2022-09-03T16:06:26.163Z,18.90
2022-09-03T16:08:56.999Z,19.00
2022-09-03T16:11:36.814Z,19.10
2022-09-03T16:14:11.922Z,19.10
2022-09-03T16:16:55.929Z,19.10
2022-09-03T16:19:28.241Z,19.10
2022-09-03T16:22:00.175Z,19.10
2022-09-03T16:24:34.599Z,19.10
2022-09-03T16:27:11.165Z,19.00
2022-09-03T16:29:39.969Z,18.90
2022-09-03T16:32:21.327Z,19.00
2022-09-03T16:35:00.343Z,18.90
2022-09-03T16:37:32.537Z,18.80
2022-09-03T16:40:13.314Z,18.80
2022-09-03T16:42:49.644Z,18.70
2022-09-03T16:45:27.327Z,18.60
2022-09-03T16:48:12.426Z,18.50
2022-09-03T16:50:57.981Z,18.60
2022-09-03T16:53:33.865Z,18.60
2022-09-03T16:56:19.409Z,18.50
2022-09-03T16:59:02.869Z,18.50
2022-09-03T17:01:52.189Z,18.50
2022-09-03T17:04:46.904Z,18.50
2022-09-03T17:07:30.254Z,18.50
2022-09-03T17:10:03.938Z,18.40
2022-09-03T17:12:39.581Z,18.40
2022-09-03T17:15:30.233Z,18.40
2022-09-03T17:18:25.439Z,18.40
2022-09-03T17:21:06.249Z,18.30
2022-09-03T17:23:59.512Z,18.30
2022-09-03T17:26:35.745Z,18.30
2022-09-03T17:29:16.697Z,18.30
2022-09-03T17:31:55.461Z,18.10
2022-09-03T17:34:50.578Z,18.20
2022-09-03T17:37:31.085Z,18.20
2022-09-03T17:40:10.913Z,18.20
2022-09-03T17:42:50.532Z,18.10
2022-09-03T17:45:34.119Z,18.10
2022-09-03T17:48:15.826Z,17.90
2022-09-03T17:50:49.914Z,18.00
2022-09-03T17:53:25.985Z,17.90
2022-09-03T17:56:01.184Z,17.80
2022-09-03T17:58:33.717Z,17.90
2022-09-03T18:01:08.731Z,17.90
2022-09-03T18:03:46.906Z,17.80
2022-09-03T18:06:25.142Z,17.80
2022-09-03T18:08:58.729Z,17.80
2022-09-03T18:11:34.269Z,17.80
2022-09-03T18:14:12.517Z,17.80
2022-09-03T18:16:50.128Z,17.70
2022-09-03T18:19:30.217Z,17.70
2022-09-03T18:22:19.291Z,17.70
2022-09-03T18:25:13.615Z,17.70
2022-09-03T18:28:02.907Z,17.60
2022-09-03T18:30:48.504Z,17.60
2022-09-03T18:33:39.575Z,17.60
2022-09-03T18:36:27.153Z,17.60
2022-09-03T18:39:30.730Z,17.50
2022-09-03T18:42:24.505Z,17.50
2022-09-03T18:45:22.166Z,17.50
2022-09-03T18:48:25.570Z,17.40
2022-09-03T18:51:21.427Z,17.40
2022-09-03T18:54:16.964Z,17.40
2022-09-03T18:57:06.508Z,17.40
2022-09-03T19:00:09.654Z,17.30
2022-09-03T19:03:05.467Z,17.40
2022-09-03T19:05:56.957Z,17.30
2022-09-03T19:08:47.369Z,17.30
2022-09-03T19:11:46.388Z,17.30
2022-09-03T19:14:38.910Z,17.30
2022-09-03T19:17:31.385Z,17.30
2022-09-03T19:20:26.415Z,17.30
2022-09-03T19:23:11.890Z,17.30
2022-09-03T19:25:57.540Z,17.20
2022-09-03T19:28:47.915Z,17.20
2022-09-03T19:31:52.396Z,17.20
2022-09-03T19:35:09.158Z,17.10
2022-09-03T19:38:00.233Z,17.00
2022-09-03T19:40:59.344Z,17.00
2022-09-03T19:44:01.690Z,17.00
2022-09-03T19:46:55.665Z,16.90
2022-09-03T19:49:48.947Z,16.90
2022-09-03T19:52:43.497Z,16.80
2022-09-03T19:55:32.249Z,16.80
2022-09-03T19:58:41.473Z,16.80
2022-09-03T20:01:27.472Z,16.70
2022-09-03T20:04:14.681Z,16.70
2022-09-03T20:07:00.928Z,16.70
2022-09-03T20:09:52.148Z,16.70
2022-09-03T20:12:23.424Z,16.70
2022-09-03T20:14:51.361Z,16.60
2022-09-03T20:17:32.056Z,16.60
2022-09-03T20:20:10.745Z,16.60
2022-09-03T20:22:47.379Z,16.60
2022-09-03T20:25:41.092Z,16.50
2022-09-03T20:28:20.442Z,16.50
2022-09-03T20:30:54.748Z,16.50
2022-09-03T20:33:46.125Z,16.50
2022-09-03T20:36:25.178Z,16.40
2022-09-03T20:39:09.636Z,16.40
2022-09-03T20:41:50.680Z,16.40
2022-09-03T20:44:44.719Z,16.40
2022-09-03T20:47:28.019Z,16.30
2022-09-03T20:50:09.956Z,16.30
2022-09-03T20:52:48.951Z,16.30
2022-09-03T20:55:22.160Z,16.30
2022-09-03T20:57:58.460Z,16.20
2022-09-03T21:00:26.885Z,16.30
2022-09-03T21:03:10.017Z,16.20
2022-09-03T21:05:50.069Z,16.20
2022-09-03T21:08:29.532Z,16.20
2022-09-03T21:11:02.780Z,16.20
2022-09-03T21:13:40.666Z,16.20
2022-09-03T21:16:24.867Z,16.10
2022-09-03T21:19:04.513Z,16.10
2022-09-03T21:21:46.561Z,16.10
2022-09-03T21:24:19.112Z,16.10
2022-09-03T21:26:51.991Z,16.00
2022-09-03T21:29:25.769Z,16.00
2022-09-03T21:32:00.384Z,16.00
2022-09-03T21:34:32.268Z,16.00
2022-09-03T21:37:05.637Z,16.00
2022-09-03T21:39:42.345Z,15.90
2022-09-03T21:42:18.156Z,16.00
2022-09-03T21:44:56.088Z,15.90
2022-09-03T21:47:25.628Z,15.90
2022-09-03T21:50:03.813Z,15.90
2022-09-03T21:52:40.601Z,15.90
2022-09-03T21:55:20.036Z,15.90
2022-09-03T21:58:00.047Z,15.90
2022-09-03T22:00:32.424Z,15.90
2022-09-03T22:03:01.141Z,15.90
2022-09-03T22:05:34.101Z,15.80
2022-09-03T22:08:14.352Z,15.80
2022-09-03T22:10:51.609Z,15.80
2022-09-03T22:13:30.050Z,15.80
2022-09-03T22:16:04.161Z,15.70
2022-09-03T22:18:37.830Z,15.80
2022-09-03T22:21:13.241Z,15.80
2022-09-03T22:24:04.012Z,15.70
2022-09-03T22:26:45.501Z,15.70
2022-09-03T22:29:23.117Z,15.70
2022-09-03T22:31:59.660Z,15.70
2022-09-03T22:34:42.363Z,15.60
2022-09-03T22:37:20.544Z,15.60
2022-09-03T22:39:50.552Z,15.60
2022-09-03T22:42:54.024Z,15.60
2022-09-03T22:45:34.327Z,15.60
2022-09-03T22:48:11.485Z,15.60
2022-09-03T22:50:47.984Z,15.60
2022-09-03T22:53:25.453Z,15.50
2022-09-03T22:56:03.825Z,15.60
2022-09-03T23:01:19.130Z,15.50
2022-09-03T23:03:54.439Z,15.50
2022-09-03T23:06:26.916Z,15.50
2022-09-03T23:09:01.273Z,15.50
2022-09-03T23:11:38.406Z,15.40
2022-09-03T23:14:09.722Z,15.50
2022-09-03T23:16:41.841Z,15.50
2022-09-03T23:21:51.201Z,15.40
2022-09-03T23:24:25.747Z,15.30
2022-09-03T23:26:55.346Z,15.40
2022-09-03T23:29:27.251Z,15.30
2022-09-03T23:31:57.458Z,15.30
2022-09-03T23:34:26.624Z,15.30
2022-09-03T23:37:33.509Z,15.30
2022-09-03T23:40:30.299Z,15.30
2022-09-03T23:43:22.569Z,15.20
2022-09-03T23:46:01.297Z,15.20
2022-09-03T23:48:42.075Z,15.20
2022-09-03T23:51:18.164Z,15.20
2022-09-03T23:53:59.591Z,15.20
2022-09-03T23:56:45.737Z,15.20
2022-09-03T23:59:23.840Z,15.10
